createdAt,value
2016-08-03T00:00:37.231Z,1011.08
2016-08-03T00:01:37.228Z,1011.09
2016-08-03T00:02:37.833Z,1011.02
2016-08-03T00:03:37.228Z,1011.04
2016-08-03T00:04:37.226Z,1011.02
2016-08-03T00:05:37.674Z,1011.06
2016-08-03T00:06:37.219Z,1011.02
2016-08-03T00:07:37.216Z,1011.04
2016-08-03T00:08:37.215Z,1011.03
2016-08-03T00:09:37.213Z,1011.03
2016-08-03T00:11:37.208Z,1011.02
2016-08-03T00:12:37.206Z,1011
2016-08-03T00:14:37.214Z,1010.93
2016-08-03T00:15:37.202Z,1010.94
2016-08-03T00:16:37.200Z,1010.96
2016-08-03T00:17:37.196Z,1010.91
2016-08-03T00:18:37.194Z,1010.94
2016-08-03T00:19:37.194Z,1010.93
2016-08-03T00:20:37.191Z,1010.96
2016-08-03T00:21:37.187Z,1010.94
2016-08-03T00:22:37.186Z,1010.9
2016-08-03T00:23:37.184Z,1010.92
2016-08-03T00:24:37.180Z,1010.88
2016-08-03T00:25:37.178Z,1010.86
2016-08-03T00:26:37.176Z,1010.88
2016-08-03T00:27:37.173Z,1010.89
2016-08-03T00:29:37.171Z,1010.89
2016-08-03T00:30:37.166Z,1010.83
2016-08-03T00:31:37.168Z,1010.88
2016-08-03T00:32:37.165Z,1010.84
2016-08-03T00:33:37.162Z,1010.84
2016-08-03T00:34:37.160Z,1010.85
2016-08-03T00:35:37.157Z,1010.87
2016-08-03T00:36:37.152Z,1010.82
2016-08-03T00:37:37.149Z,1010.82
2016-08-03T00:38:37.150Z,1010.84
2016-08-03T00:39:37.148Z,1010.78
2016-08-03T00:40:37.146Z,1010.76
2016-08-03T00:41:37.144Z,1010.77
2016-08-03T00:42:37.141Z,1010.75
2016-08-03T00:44:37.134Z,1010.76
2016-08-03T00:45:37.133Z,1010.75
2016-08-03T00:46:37.130Z,1010.8
2016-08-03T00:47:37.677Z,1010.75
2016-08-03T00:48:37.125Z,1010.78
2016-08-03T00:49:37.125Z,1010.74
2016-08-03T00:50:37.122Z,1010.76
2016-08-03T00:51:37.118Z,1010.76
2016-08-03T00:52:37.119Z,1010.76
2016-08-03T00:53:37.114Z,1010.78
2016-08-03T00:54:37.113Z,1010.77
2016-08-03T00:55:37.108Z,1010.72
2016-08-03T00:56:37.106Z,1010.72
2016-08-03T00:57:37.103Z,1010.71
2016-08-03T00:59:37.100Z,1010.73
2016-08-03T01:00:37.096Z,1010.75
2016-08-03T01:01:37.094Z,1010.73
2016-08-03T01:02:37.092Z,1010.78
2016-08-03T01:03:37.091Z,1010.75
2016-08-03T01:04:37.085Z,1010.74
2016-08-03T01:05:37.083Z,1010.75
2016-08-03T01:06:37.079Z,1010.72
2016-08-03T01:07:37.077Z,1010.68
2016-08-03T01:08:37.077Z,1010.68
2016-08-03T01:09:37.071Z,1010.67
2016-08-03T01:10:37.069Z,1010.68
2016-08-03T01:11:37.069Z,1010.66
2016-08-03T01:12:37.064Z,1010.67
2016-08-03T01:13:37.062Z,1010.7
2016-08-03T01:14:37.061Z,1010.65
2016-08-03T01:15:37.054Z,1010.63
2016-08-03T01:16:37.054Z,1010.62
2016-08-03T01:17:37.048Z,1010.62
2016-08-03T01:18:37.048Z,1010.66
2016-08-03T01:19:38.425Z,1010.67
2016-08-03T01:20:37.042Z,1010.63
2016-08-03T01:21:37.039Z,1010.64
2016-08-03T01:22:37.037Z,1010.64
2016-08-03T01:23:37.983Z,1010.64
2016-08-03T01:24:37.144Z,1010.66
2016-08-03T01:28:37.018Z,1010.68
2016-08-03T01:30:38.119Z,1010.69
2016-08-03T01:31:37.006Z,1010.67
2016-08-03T01:32:37.003Z,1010.69
2016-08-03T01:33:37.000Z,1010.68
2016-08-03T01:34:36.997Z,1010.66
2016-08-03T01:35:36.995Z,1010.65
2016-08-03T01:36:36.989Z,1010.69
2016-08-03T01:37:36.986Z,1010.68
2016-08-03T01:38:36.984Z,1010.65
2016-08-03T01:39:36.983Z,1010.66
2016-08-03T01:40:36.980Z,1010.62
2016-08-03T01:41:36.975Z,1010.6
2016-08-03T01:42:36.972Z,1010.63
2016-08-03T01:43:36.970Z,1010.65
2016-08-03T01:44:36.964Z,1010.67
2016-08-03T01:45:36.963Z,1010.64
2016-08-03T01:46:36.958Z,1010.63
2016-08-03T01:47:36.955Z,1010.61
2016-08-03T01:48:36.957Z,1010.62
2016-08-03T01:49:36.950Z,1010.57
2016-08-03T01:50:36.945Z,1010.58
2016-08-03T01:51:36.943Z,1010.55
2016-08-03T01:52:36.938Z,1010.55
2016-08-03T01:53:36.934Z,1010.56
2016-08-03T01:54:36.933Z,1010.59
2016-08-03T01:55:36.929Z,1010.6
2016-08-03T01:56:36.924Z,1010.61
2016-08-03T01:57:36.922Z,1010.59
2016-08-03T01:58:36.921Z,1010.6
2016-08-03T01:59:36.914Z,1010.59
2016-08-03T02:00:36.917Z,1010.61
2016-08-03T02:01:38.061Z,1010.61
2016-08-03T02:02:37.755Z,1010.62
2016-08-03T02:03:36.900Z,1010.59
2016-08-03T02:04:36.896Z,1010.62
2016-08-03T02:05:36.895Z,1010.58
2016-08-03T02:06:37.190Z,1010.53
2016-08-03T02:07:36.889Z,1010.56
2016-08-03T02:08:36.883Z,1010.48
2016-08-03T02:09:36.882Z,1010.5
2016-08-03T02:10:37.481Z,1010.5
2016-08-03T02:11:37.424Z,1010.49
2016-08-03T02:12:36.868Z,1010.51
2016-08-03T02:13:37.068Z,1010.49
2016-08-03T02:14:37.063Z,1010.48
2016-08-03T02:15:36.858Z,1010.46
2016-08-03T02:16:37.057Z,1010.47
2016-08-03T02:17:36.853Z,1010.44
2016-08-03T02:18:36.848Z,1010.47
2016-08-03T02:19:36.846Z,1010.43
2016-08-03T02:20:36.844Z,1010.41
2016-08-03T02:21:36.837Z,1010.43
2016-08-03T02:22:36.833Z,1010.43
2016-08-03T02:23:36.831Z,1010.4
2016-08-03T02:24:36.826Z,1010.42
2016-08-03T02:25:36.823Z,1010.36
2016-08-03T02:26:36.818Z,1010.41
2016-08-03T02:27:36.817Z,1010.42
2016-08-03T02:28:36.814Z,1010.42
2016-08-03T02:29:36.809Z,1010.41
2016-08-03T02:30:36.806Z,1010.4
2016-08-03T02:31:36.803Z,1010.39
2016-08-03T02:32:36.799Z,1010.38
2016-08-03T02:33:36.793Z,1010.36
2016-08-03T02:34:36.791Z,1010.36
2016-08-03T02:35:36.787Z,1010.33
2016-08-03T02:36:36.785Z,1010.34
2016-08-03T02:37:36.779Z,1010.35
2016-08-03T02:38:37.797Z,1010.35
2016-08-03T02:39:37.748Z,1010.35
2016-08-03T02:40:36.770Z,1010.36
2016-08-03T02:41:37.735Z,1010.35
2016-08-03T02:42:36.765Z,1010.34
2016-08-03T02:43:36.761Z,1010.32
2016-08-03T02:44:36.757Z,1010.29
2016-08-03T02:45:36.755Z,1010.27
2016-08-03T02:46:36.749Z,1010.21
2016-08-03T02:47:36.748Z,1010.2
2016-08-03T02:48:36.743Z,1010.18
2016-08-03T02:49:38.229Z,1010.17
2016-08-03T02:50:36.898Z,1010.17
2016-08-03T02:51:37.303Z,1010.15
2016-08-03T02:52:36.730Z,1010.15
2016-08-03T02:53:36.727Z,1010.18
2016-08-03T02:54:36.722Z,1010.14
2016-08-03T02:55:36.720Z,1010.17
2016-08-03T02:56:36.715Z,1010.2
2016-08-03T02:57:36.712Z,1010.21
2016-08-03T02:58:36.708Z,1010.21
2016-08-03T02:59:36.703Z,1010.16
2016-08-03T03:00:36.704Z,1010.19
2016-08-03T03:01:36.698Z,1010.16
2016-08-03T03:02:36.695Z,1010.12
2016-08-03T03:03:36.694Z,1010.14
2016-08-03T03:04:36.688Z,1010.08
2016-08-03T03:05:36.684Z,1010.07
2016-08-03T03:06:36.680Z,1010.12
2016-08-03T03:07:36.678Z,1010.13
2016-08-03T03:08:36.676Z,1010.11
2016-08-03T03:09:36.671Z,1010.17
2016-08-03T03:10:36.675Z,1010.13
2016-08-03T03:11:36.665Z,1010.15
2016-08-03T03:12:36.663Z,1010.17
2016-08-03T03:13:36.661Z,1010.16
2016-08-03T03:14:36.656Z,1010.21
2016-08-03T03:15:36.654Z,1010.24
2016-08-03T03:16:36.650Z,1010.21
2016-08-03T03:17:36.644Z,1010.24
2016-08-03T03:18:36.642Z,1010.22
2016-08-03T03:19:36.641Z,1010.23
2016-08-03T03:20:36.635Z,1010.19
2016-08-03T03:21:36.632Z,1010.2
2016-08-03T03:22:36.627Z,1010.19
2016-08-03T03:23:36.625Z,1010.2
2016-08-03T03:24:36.623Z,1010.22
2016-08-03T03:25:36.618Z,1010.2
2016-08-03T03:26:36.617Z,1010.2
2016-08-03T03:27:36.611Z,1010.15
2016-08-03T03:28:37.310Z,1010.11
2016-08-03T03:29:37.656Z,1010.17
2016-08-03T03:30:36.603Z,1010.16
2016-08-03T03:31:36.600Z,1010.18
2016-08-03T03:32:36.593Z,1010.19
2016-08-03T03:33:36.591Z,1010.16
2016-08-03T03:34:36.590Z,1010.14
2016-08-03T03:35:36.583Z,1010.11
2016-08-03T03:36:36.582Z,1010.14
2016-08-03T03:37:36.579Z,1010.13
2016-08-03T03:38:36.578Z,1010.14
2016-08-03T03:39:36.574Z,1010.15
2016-08-03T03:40:36.568Z,1010.16
2016-08-03T03:41:36.565Z,1010.15
2016-08-03T03:42:36.562Z,1010.17
2016-08-03T03:43:36.560Z,1010.14
2016-08-03T03:44:36.556Z,1010.16
2016-08-03T03:45:36.555Z,1010.16
2016-08-03T03:46:36.548Z,1010.18
2016-08-03T03:47:36.546Z,1010.22
2016-08-03T03:48:36.558Z,1010.19
2016-08-03T03:49:36.543Z,1010.18
2016-08-03T03:50:36.544Z,1010.17
2016-08-03T03:51:36.533Z,1010.11
2016-08-03T03:52:36.530Z,1010.08
2016-08-03T03:53:36.530Z,1010.05
2016-08-03T03:54:36.523Z,1010.06
2016-08-03T03:55:36.522Z,1010.1
2016-08-03T03:56:36.521Z,1010.08
2016-08-03T03:57:36.514Z,1010.14
2016-08-03T03:58:36.514Z,1010.1
2016-08-03T03:59:37.695Z,1010.12
2016-08-03T04:00:36.506Z,1010.06
2016-08-03T04:01:36.503Z,1010.09
2016-08-03T04:02:36.499Z,1010.13
2016-08-03T04:03:36.722Z,1010.15
2016-08-03T04:04:36.494Z,1010.16
2016-08-03T04:05:38.167Z,1010.19
2016-08-03T04:06:36.491Z,1010.25
2016-08-03T04:07:37.013Z,1010.29
2016-08-03T04:08:36.582Z,1010.27
2016-08-03T04:09:36.483Z,1010.31
2016-08-03T04:10:36.480Z,1010.31
2016-08-03T04:11:36.478Z,1010.26
2016-08-03T04:12:36.473Z,1010.23
2016-08-03T04:13:36.472Z,1010.24
2016-08-03T04:15:36.469Z,1010.26
2016-08-03T04:16:36.463Z,1010.22
2016-08-03T04:17:36.464Z,1010.19
2016-08-03T04:18:36.460Z,1010.2
2016-08-03T04:19:36.460Z,1010.11
2016-08-03T04:20:36.457Z,1010.13
2016-08-03T04:21:36.459Z,1010.11
2016-08-03T04:22:36.457Z,1010.1
2016-08-03T04:23:36.456Z,1010.12
2016-08-03T04:24:36.456Z,1010.11
2016-08-03T04:25:36.460Z,1010.14
2016-08-03T04:26:36.459Z,1010.1
2016-08-03T04:27:36.459Z,1010.08
2016-08-03T04:28:36.460Z,1010.03
2016-08-03T04:30:36.461Z,1009.94
2016-08-03T04:31:36.465Z,1009.95
2016-08-03T04:32:36.465Z,1009.98
2016-08-03T04:33:36.467Z,1009.98
2016-08-03T04:34:36.469Z,1009.99
2016-08-03T04:35:36.469Z,1009.97
2016-08-03T04:36:36.472Z,1010
2016-08-03T04:37:36.475Z,1009.98
2016-08-03T04:38:36.479Z,1009.9
2016-08-03T04:40:36.735Z,1009.98
2016-08-03T04:41:36.485Z,1009.94
2016-08-03T04:42:36.491Z,1009.88
2016-08-03T04:43:36.494Z,1009.87
2016-08-03T04:45:36.502Z,1009.85
2016-08-03T04:47:36.508Z,1009.89
2016-08-03T04:50:36.519Z,1009.81
2016-08-03T04:51:36.769Z,1009.79
2016-08-03T04:52:36.572Z,1009.78
2016-08-03T04:53:36.525Z,1009.81
2016-08-03T04:54:36.528Z,1009.74
2016-08-03T04:55:36.531Z,1009.75
2016-08-03T04:56:36.532Z,1009.78
2016-08-03T04:57:36.532Z,1009.79
2016-08-03T04:58:36.538Z,1009.8
2016-08-03T04:59:36.540Z,1009.79
2016-08-03T05:00:36.552Z,1009.81
2016-08-03T05:01:36.541Z,1009.79
2016-08-03T05:02:36.542Z,1009.78
2016-08-03T05:03:36.546Z,1009.72
2016-08-03T05:04:36.549Z,1009.68
2016-08-03T05:05:36.548Z,1009.67
2016-08-03T05:06:36.548Z,1009.64
2016-08-03T05:07:36.551Z,1009.65
2016-08-03T05:08:36.551Z,1009.6
2016-08-03T05:09:36.555Z,1009.63
2016-08-03T05:10:36.554Z,1009.64
2016-08-03T05:11:36.552Z,1009.59
2016-08-03T05:12:36.557Z,1009.6
2016-08-03T05:13:36.554Z,1009.61
2016-08-03T05:14:38.052Z,1009.55
2016-08-03T05:15:36.556Z,1009.6
2016-08-03T05:16:38.081Z,1009.59
2016-08-03T05:17:36.561Z,1009.6
2016-08-03T05:18:36.557Z,1009.58
2016-08-03T05:19:36.558Z,1009.55
2016-08-03T05:20:36.558Z,1009.55
2016-08-03T05:21:36.558Z,1009.53
2016-08-03T05:22:36.559Z,1009.48
2016-08-03T05:23:36.558Z,1009.53
2016-08-03T05:24:37.793Z,1009.51
2016-08-03T05:25:36.558Z,1009.5
2016-08-03T05:26:37.088Z,1009.5
2016-08-03T05:27:36.561Z,1009.53
2016-08-03T05:28:36.558Z,1009.57
2016-08-03T05:29:36.560Z,1009.64
2016-08-03T05:30:36.564Z,1009.61
2016-08-03T05:31:36.560Z,1009.63
2016-08-03T05:32:36.557Z,1009.62
2016-08-03T05:33:36.559Z,1009.62
2016-08-03T05:34:36.556Z,1009.61
2016-08-03T05:35:36.557Z,1009.59
2016-08-03T05:36:36.556Z,1009.57
2016-08-03T05:37:36.555Z,1009.55
2016-08-03T05:38:36.559Z,1009.54
2016-08-03T05:39:36.561Z,1009.49
2016-08-03T05:40:36.556Z,1009.51
2016-08-03T05:41:36.556Z,1009.49
2016-08-03T05:42:36.555Z,1009.48
2016-08-03T05:43:36.553Z,1009.44
2016-08-03T05:44:36.552Z,1009.46
2016-08-03T05:45:36.552Z,1009.44
2016-08-03T05:46:36.553Z,1009.45
2016-08-03T05:47:36.550Z,1009.4
2016-08-03T05:48:36.549Z,1009.43
2016-08-03T05:49:36.551Z,1009.37
2016-08-03T05:50:36.555Z,1009.35
2016-08-03T05:51:36.548Z,1009.36
2016-08-03T05:52:36.547Z,1009.38
2016-08-03T05:53:36.551Z,1009.35
2016-08-03T05:54:36.545Z,1009.37
2016-08-03T05:55:36.546Z,1009.36
2016-08-03T05:56:36.547Z,1009.38
2016-08-03T05:57:36.545Z,1009.36
2016-08-03T05:58:36.550Z,1009.37
2016-08-03T05:59:36.545Z,1009.37
2016-08-03T06:00:36.545Z,1009.38
2016-08-03T06:01:36.544Z,1009.37
2016-08-03T06:02:36.541Z,1009.39
2016-08-03T06:03:36.544Z,1009.38
2016-08-03T06:04:36.543Z,1009.34
2016-08-03T06:05:36.541Z,1009.33
2016-08-03T06:06:36.542Z,1009.34
2016-08-03T06:07:36.540Z,1009.29
2016-08-03T06:08:36.540Z,1009.37
2016-08-03T06:09:36.542Z,1009.36
2016-08-03T06:10:36.541Z,1009.34
2016-08-03T06:11:36.540Z,1009.35
2016-08-03T06:12:36.539Z,1009.39
2016-08-03T06:13:36.537Z,1009.4
2016-08-03T06:14:36.541Z,1009.4
2016-08-03T06:15:36.544Z,1009.41
2016-08-03T06:16:36.541Z,1009.44
2016-08-03T06:17:36.541Z,1009.43
2016-08-03T06:18:36.541Z,1009.49
2016-08-03T06:19:36.540Z,1009.53
2016-08-03T06:20:36.539Z,1009.55
2016-08-03T06:21:36.540Z,1009.52
2016-08-03T06:22:36.544Z,1009.51
2016-08-03T06:23:36.542Z,1009.57
2016-08-03T06:24:36.542Z,1009.53
2016-08-03T06:25:36.546Z,1009.52
2016-08-03T06:26:36.547Z,1009.45
2016-08-03T06:27:36.547Z,1009.42
2016-08-03T06:28:36.550Z,1009.38
2016-08-03T06:29:36.552Z,1009.36
2016-08-03T06:30:36.558Z,1009.35
2016-08-03T06:31:36.552Z,1009.37
2016-08-03T06:32:36.554Z,1009.36
2016-08-03T06:33:37.769Z,1009.32
2016-08-03T06:34:37.005Z,1009.36
2016-08-03T06:35:36.561Z,1009.32
2016-08-03T06:36:36.563Z,1009.31
2016-08-03T06:37:36.568Z,1009.27
2016-08-03T06:38:36.569Z,1009.22
2016-08-03T06:39:36.570Z,1009.2
2016-08-03T06:40:36.576Z,1009.2
2016-08-03T06:41:36.578Z,1009.19
2016-08-03T06:42:36.580Z,1009.18
2016-08-03T06:43:36.582Z,1009.2
2016-08-03T06:44:37.525Z,1009.18
2016-08-03T06:45:36.589Z,1009.22
2016-08-03T06:46:36.591Z,1009.22
2016-08-03T06:47:37.118Z,1009.2
2016-08-03T06:48:36.596Z,1009.19
2016-08-03T06:49:36.598Z,1009.14
2016-08-03T06:50:36.602Z,1009.13
2016-08-03T06:51:36.605Z,1009.16
2016-08-03T06:52:36.610Z,1009.16
2016-08-03T06:53:36.610Z,1009.21
2016-08-03T06:54:36.615Z,1009.24
2016-08-03T06:55:36.618Z,1009.19
2016-08-03T06:56:36.621Z,1009.15
2016-08-03T06:57:36.622Z,1009.14
2016-08-03T06:58:36.675Z,1009.2
2016-08-03T06:59:36.627Z,1009.15
2016-08-03T07:00:36.632Z,1009.13
2016-08-03T07:01:36.633Z,1009.11
2016-08-03T07:02:36.635Z,1009.14
2016-08-03T07:03:36.641Z,1009.15
2016-08-03T07:04:36.643Z,1009.13
2016-08-03T07:05:36.644Z,1009.09
2016-08-03T07:06:36.647Z,1009.1
2016-08-03T07:07:36.652Z,1009.08
2016-08-03T07:08:36.652Z,1009.03
2016-08-03T07:09:36.655Z,1009.01
2016-08-03T07:10:36.660Z,1009.05
2016-08-03T07:11:36.660Z,1009.03
2016-08-03T07:12:36.666Z,1009.09
2016-08-03T07:13:36.666Z,1009.03
2016-08-03T07:14:37.872Z,1009.03
2016-08-03T07:15:36.973Z,1009.02
2016-08-03T07:17:36.676Z,1009.06
2016-08-03T07:18:36.679Z,1009.05
2016-08-03T07:19:36.681Z,1009.07
2016-08-03T07:20:36.683Z,1009.08
2016-08-03T07:21:36.688Z,1009.06
2016-08-03T07:22:36.689Z,1009.02
2016-08-03T07:24:37.244Z,1009.05
2016-08-03T07:25:36.696Z,1009.09
2016-08-03T07:26:36.698Z,1009.08
2016-08-03T07:27:36.702Z,1009.06
2016-08-03T07:28:36.707Z,1009.06
2016-08-03T07:29:36.708Z,1009.06
2016-08-03T07:30:36.710Z,1009.16
2016-08-03T07:31:36.713Z,1009.19
2016-08-03T07:32:36.713Z,1009.14
2016-08-03T07:33:36.717Z,1009.14
2016-08-03T07:34:36.722Z,1009.12
2016-08-03T07:35:36.726Z,1009.11
2016-08-03T07:36:36.726Z,1009.12
2016-08-03T07:37:36.728Z,1009.04
2016-08-03T07:38:36.731Z,1009
2016-08-03T07:39:36.735Z,1009.01
2016-08-03T07:40:36.737Z,1009.06
2016-08-03T07:41:36.741Z,1009.07
2016-08-03T07:42:36.744Z,1009.1
2016-08-03T07:43:36.751Z,1009.09
2016-08-03T07:44:36.754Z,1009.13
2016-08-03T07:45:36.754Z,1009.16
2016-08-03T07:46:36.757Z,1009.13
2016-08-03T07:47:36.765Z,1009.14
2016-08-03T07:48:36.765Z,1009.19
2016-08-03T07:49:36.786Z,1009.18
2016-08-03T07:50:36.774Z,1009.05
2016-08-03T07:51:36.778Z,1009.12
2016-08-03T07:52:36.782Z,1008.99
2016-08-03T07:53:36.786Z,1009.06
2016-08-03T07:54:37.154Z,1009.06
2016-08-03T07:55:37.544Z,1009.03
2016-08-03T07:56:36.798Z,1009.02
2016-08-03T07:57:36.801Z,1009.01
2016-08-03T07:58:36.808Z,1009.03
2016-08-03T07:59:36.812Z,1009.03
2016-08-03T08:01:36.821Z,1008.8
2016-08-03T08:02:38.089Z,1008.93
2016-08-03T08:03:37.201Z,1008.88
2016-08-03T08:04:36.833Z,1008.86
2016-08-03T08:05:36.841Z,1008.84
2016-08-03T08:06:36.844Z,1008.68
2016-08-03T08:07:36.846Z,1008.69
2016-08-03T08:08:36.851Z,1008.69
2016-08-03T08:09:36.857Z,1008.63
2016-08-03T08:10:36.859Z,1008.71
2016-08-03T08:11:36.865Z,1008.77
2016-08-03T08:12:36.868Z,1008.63
2016-08-03T08:13:36.875Z,1008.79
2016-08-03T08:14:36.877Z,1008.82
2016-08-03T08:16:36.888Z,1008.73
2016-08-03T08:17:36.890Z,1008.67
2016-08-03T08:18:36.897Z,1008.69
2016-08-03T08:19:36.898Z,1008.78
2016-08-03T08:20:36.903Z,1008.77
2016-08-03T08:21:36.906Z,1008.68
2016-08-03T08:22:36.910Z,1008.66
2016-08-03T08:23:36.914Z,1008.67
2016-08-03T08:24:36.921Z,1008.72
2016-08-03T08:25:36.921Z,1008.72
2016-08-03T08:26:36.927Z,1008.7
2016-08-03T08:27:36.929Z,1008.72
2016-08-03T08:28:36.934Z,1008.68
2016-08-03T08:29:36.935Z,1008.63
2016-08-03T08:31:36.944Z,1008.62
2016-08-03T08:32:36.946Z,1008.63
2016-08-03T08:33:36.951Z,1008.57
2016-08-03T08:34:36.955Z,1008.52
2016-08-03T08:35:36.957Z,1008.51
2016-08-03T08:36:36.958Z,1008.49
2016-08-03T08:37:36.962Z,1008.52
2016-08-03T08:38:36.966Z,1008.53
2016-08-03T08:39:36.967Z,1008.53
2016-08-03T08:40:36.970Z,1008.55
2016-08-03T08:42:36.975Z,1008.53
2016-08-03T08:43:36.981Z,1008.51
2016-08-03T08:44:36.985Z,1008.54
2016-08-03T08:45:36.987Z,1008.56
2016-08-03T08:46:37.437Z,1008.54
2016-08-03T08:47:36.989Z,1008.5
2016-08-03T08:48:36.997Z,1008.48
2016-08-03T08:49:36.995Z,1008.45
2016-08-03T08:50:36.996Z,1008.4
2016-08-03T08:51:36.999Z,1008.45
2016-08-03T08:52:37.002Z,1008.47
2016-08-03T08:53:37.006Z,1008.48
2016-08-03T08:54:37.007Z,1008.48
2016-08-03T08:55:37.009Z,1008.52
2016-08-03T08:56:37.012Z,1008.46
2016-08-03T08:57:37.015Z,1008.42
2016-08-03T08:58:37.115Z,1008.4
2016-08-03T08:59:37.020Z,1008.41
2016-08-03T09:00:37.020Z,1008.43
2016-08-03T09:01:37.026Z,1008.44
2016-08-03T09:02:37.027Z,1008.45
2016-08-03T09:03:37.029Z,1008.38
2016-08-03T09:04:37.030Z,1008.44
2016-08-03T09:05:37.033Z,1008.44
2016-08-03T09:06:37.039Z,1008.45
2016-08-03T09:07:37.037Z,1008.51
2016-08-03T09:08:37.037Z,1008.47
2016-08-03T09:09:37.039Z,1008.5
2016-08-03T09:10:38.262Z,1008.5
2016-08-03T09:11:37.046Z,1008.47
2016-08-03T09:12:37.048Z,1008.5
2016-08-03T09:13:37.050Z,1008.45
2016-08-03T09:14:37.050Z,1008.43
2016-08-03T09:15:37.053Z,1008.43
2016-08-03T09:16:37.056Z,1008.42
2016-08-03T09:17:37.058Z,1008.45
2016-08-03T09:18:37.061Z,1008.43
2016-08-03T09:19:37.224Z,1008.42
2016-08-03T09:20:37.063Z,1008.44
2016-08-03T09:21:37.066Z,1008.44
2016-08-03T09:22:37.075Z,1008.44
2016-08-03T09:23:37.068Z,1008.43
2016-08-03T09:24:37.070Z,1008.4
2016-08-03T09:25:37.075Z,1008.43
2016-08-03T09:26:37.076Z,1008.4
2016-08-03T09:27:37.078Z,1008.45
2016-08-03T09:28:37.079Z,1008.55
2016-08-03T09:29:37.085Z,1008.56
2016-08-03T09:30:37.085Z,1008.48
2016-08-03T09:31:37.088Z,1008.58
2016-08-03T09:32:37.091Z,1008.43
2016-08-03T09:33:37.091Z,1008.47
2016-08-03T09:34:37.096Z,1008.45
2016-08-03T09:35:37.097Z,1008.54
2016-08-03T09:36:37.099Z,1008.46
2016-08-03T09:37:37.100Z,1008.5
2016-08-03T09:38:37.105Z,1008.46
2016-08-03T09:39:37.108Z,1008.44
2016-08-03T09:40:37.117Z,1008.36
2016-08-03T09:41:37.114Z,1008.34
2016-08-03T09:42:37.116Z,1008.42
2016-08-03T09:43:37.119Z,1008.26
2016-08-03T09:44:37.120Z,1008.3
2016-08-03T09:45:37.122Z,1008.27
2016-08-03T09:46:37.127Z,1008.29
2016-08-03T09:47:37.128Z,1008.24
2016-08-03T09:48:37.132Z,1008.25
2016-08-03T09:49:37.132Z,1008.27
2016-08-03T09:50:37.137Z,1008.22
2016-08-03T09:51:37.137Z,1008.27
2016-08-03T09:52:37.891Z,1008.35
2016-08-03T09:53:37.443Z,1008.46
2016-08-03T09:54:37.145Z,1008.44
2016-08-03T09:55:37.147Z,1008.4
2016-08-03T09:56:37.156Z,1008.47
2016-08-03T09:57:37.155Z,1008.45
2016-08-03T09:58:37.207Z,1008.42
2016-08-03T09:59:37.157Z,1008.43
2016-08-03T10:00:37.159Z,1008.4
2016-08-03T10:01:37.161Z,1008.48
2016-08-03T10:02:38.016Z,1008.41
2016-08-03T10:03:37.167Z,1008.45
2016-08-03T10:04:37.321Z,1008.39
2016-08-03T10:05:37.172Z,1008.36
2016-08-03T10:06:37.173Z,1008.43
2016-08-03T10:07:37.176Z,1008.48
2016-08-03T10:08:37.180Z,1008.5
2016-08-03T10:09:37.186Z,1008.44
2016-08-03T10:10:37.185Z,1008.4
2016-08-03T10:11:37.188Z,1008.43
2016-08-03T10:12:37.193Z,1008.38
2016-08-03T10:13:37.196Z,1008.42
2016-08-03T10:14:37.198Z,1008.57
2016-08-03T10:15:37.199Z,1008.57
2016-08-03T10:16:37.203Z,1008.44
2016-08-03T10:17:37.204Z,1008.42
2016-08-03T10:18:37.210Z,1008.39
2016-08-03T10:19:37.212Z,1008.32
2016-08-03T10:20:37.215Z,1008.39
2016-08-03T10:21:37.216Z,1008.33
2016-08-03T10:22:37.220Z,1008.28
2016-08-03T10:23:37.223Z,1008.36
2016-08-03T10:24:37.228Z,1008.51
2016-08-03T10:25:37.228Z,1008.39
2016-08-03T10:26:37.235Z,1008.42
2016-08-03T10:27:37.237Z,1008.36
2016-08-03T10:28:39.192Z,1008.4
2016-08-03T10:29:37.427Z,1008.5
2016-08-03T10:30:37.530Z,1008.46
2016-08-03T10:31:37.249Z,1008.43
2016-08-03T10:32:37.879Z,1008.48
2016-08-03T10:33:37.258Z,1008.46
2016-08-03T10:34:37.260Z,1008.49
2016-08-03T10:35:37.265Z,1008.34
2016-08-03T10:36:37.266Z,1008.4
2016-08-03T10:37:37.803Z,1008.38
2016-08-03T10:38:37.276Z,1008.41
2016-08-03T10:39:37.280Z,1008.43
2016-08-03T10:40:37.286Z,1008.42
2016-08-03T10:41:37.901Z,1008.47
2016-08-03T10:42:37.290Z,1008.52
2016-08-03T10:43:37.297Z,1008.53
2016-08-03T10:44:37.299Z,1008.48
2016-08-03T10:45:37.307Z,1008.43
2016-08-03T10:46:37.309Z,1008.38
2016-08-03T10:47:37.315Z,1008.27
2016-08-03T10:48:37.319Z,1008.07
2016-08-03T10:49:37.324Z,1007.94
2016-08-03T10:50:37.328Z,1007.91
2016-08-03T10:51:37.335Z,1007.88
2016-08-03T10:52:37.342Z,1007.88
2016-08-03T10:53:37.347Z,1007.99
2016-08-03T10:54:37.349Z,1007.82
2016-08-03T10:55:37.354Z,1007.77
2016-08-03T10:56:37.361Z,1007.69
2016-08-03T10:57:37.367Z,1007.62
2016-08-03T10:58:37.372Z,1007.72
2016-08-03T10:59:37.377Z,1007.68
2016-08-03T11:00:37.379Z,1007.7
2016-08-03T11:01:37.389Z,1007.75
2016-08-03T11:02:37.391Z,1007.77
2016-08-03T11:03:37.395Z,1007.7
2016-08-03T11:04:37.401Z,1007.78
2016-08-03T11:05:37.402Z,1007.77
2016-08-03T11:06:37.407Z,1007.86
2016-08-03T11:07:37.411Z,1007.81
2016-08-03T11:08:37.417Z,1007.86
2016-08-03T11:09:37.476Z,1007.88
2016-08-03T11:10:37.426Z,1007.88
2016-08-03T11:11:37.437Z,1007.88
2016-08-03T11:12:37.433Z,1007.86
2016-08-03T11:13:37.437Z,1007.94
2016-08-03T11:14:37.443Z,1007.95
2016-08-03T11:15:37.446Z,1008.1
2016-08-03T11:16:37.451Z,1008.09
2016-08-03T11:17:37.453Z,1008.13
2016-08-03T11:18:37.908Z,1007.93
2016-08-03T11:19:37.461Z,1007.84
2016-08-03T11:20:37.466Z,1007.84
2016-08-03T11:21:37.472Z,1007.9
2016-08-03T11:22:37.473Z,1007.93
2016-08-03T11:23:37.627Z,1007.91
2016-08-03T11:24:37.480Z,1007.84
2016-08-03T11:25:37.484Z,1007.94
2016-08-03T11:26:37.495Z,1007.94
2016-08-03T11:27:37.493Z,1007.98
2016-08-03T11:28:37.496Z,1007.97
2016-08-03T11:29:37.501Z,1008.07
2016-08-03T11:30:37.505Z,1008.13
2016-08-03T11:31:37.506Z,1008.2
2016-08-03T11:32:37.511Z,1008.14
2016-08-03T11:33:37.518Z,1007.99
2016-08-03T11:34:37.527Z,1007.89
2016-08-03T11:35:37.525Z,1008.03
2016-08-03T11:36:37.527Z,1007.91
2016-08-03T11:37:37.534Z,1007.85
2016-08-03T11:38:37.534Z,1007.85
2016-08-03T11:39:37.539Z,1007.82
2016-08-03T11:40:37.548Z,1007.76
2016-08-03T11:41:37.548Z,1007.72
2016-08-03T11:42:37.556Z,1007.69
2016-08-03T11:43:37.564Z,1007.69
2016-08-03T11:44:37.563Z,1007.69
2016-08-03T11:45:37.569Z,1007.69
2016-08-03T11:47:38.658Z,1007.74
2016-08-03T11:48:37.577Z,1007.67
2016-08-03T11:49:37.583Z,1007.68
2016-08-03T11:50:37.585Z,1007.76
2016-08-03T11:51:37.590Z,1007.67
2016-08-03T11:52:37.595Z,1007.76
2016-08-03T11:53:37.597Z,1007.78
2016-08-03T11:54:37.603Z,1007.94
2016-08-03T11:55:38.529Z,1008.03
2016-08-03T11:56:38.033Z,1008.08
2016-08-03T11:57:37.614Z,1008.04
2016-08-03T11:58:37.719Z,1007.84
2016-08-03T11:59:37.621Z,1007.83
2016-08-03T12:00:38.199Z,1007.75
2016-08-03T12:01:37.629Z,1007.83
2016-08-03T12:02:37.633Z,1007.79
2016-08-03T12:03:37.636Z,1007.75
2016-08-03T12:04:37.643Z,1007.73
2016-08-03T12:05:37.643Z,1007.74
2016-08-03T12:06:37.646Z,1007.73
2016-08-03T12:07:37.650Z,1007.71
2016-08-03T12:08:37.657Z,1007.67
2016-08-03T12:09:37.662Z,1007.66
2016-08-03T12:10:37.665Z,1007.61
2016-08-03T12:11:37.667Z,1007.61
2016-08-03T12:12:37.672Z,1007.65
2016-08-03T12:13:37.674Z,1007.71
2016-08-03T12:14:37.676Z,1007.72
2016-08-03T12:15:37.680Z,1007.69
2016-08-03T12:16:37.685Z,1007.67
2016-08-03T12:17:37.690Z,1007.75
2016-08-03T12:18:37.692Z,1007.84
2016-08-03T12:19:37.694Z,1007.96
2016-08-03T12:20:37.700Z,1008.16
2016-08-03T12:21:37.705Z,1008.12
2016-08-03T12:22:37.705Z,1007.97
2016-08-03T12:23:37.710Z,1007.88
2016-08-03T12:24:37.716Z,1007.86
2016-08-03T12:25:37.716Z,1007.95
2016-08-03T12:26:37.719Z,1007.98
2016-08-03T12:27:38.776Z,1007.9
2016-08-03T12:28:37.879Z,1007.87
2016-08-03T12:30:37.734Z,1007.86
2016-08-03T12:31:37.740Z,1007.86
2016-08-03T12:32:37.742Z,1007.9